Time;durP1;ratioP1;P1;durP2;ratioP2;P2;SDS_P1;SDS_P2;PMS_P1;PMS_P2;Temp;Humidity;BMP_temperature;BMP_pressure;BME280_temperature;BME280_humidity;BME280_pressure;Samples;Min_cycle;Max_cycle;Signal;HPM_P1;HPM_P2
2023/12/10 00:02:05;;;;;;;31.45;8.75;;;;;;;7.68;100.00;99262.97;10442247;28;20091;-77
2023/12/10 00:07:06;;;;;;;34.45;11.00;;;;;;;7.64;100.00;99267.34;10442931;28;20074;-77
2023/12/10 00:12:06;;;;;;;22.63;7.30;;;;;;;7.59;100.00;99279.13;10425255;28;20033;-75
2023/12/10 00:17:07;;;;;;;31.42;9.30;;;;;;;7.62;100.00;99262.13;10441321;28;20491;-77
2023/12/10 00:22:08;;;;;;;24.02;6.70;;;;;;;7.58;100.00;99260.22;10419768;28;20041;-76
2023/12/10 00:27:09;;;;;;;29.27;7.90;;;;;;;7.46;100.00;99261.31;10440903;28;20041;-77
2023/12/10 00:32:09;;;;;;;24.63;7.05;;;;;;;7.43;100.00;99272.81;10441755;28;20409;-76
2023/12/10 00:37:10;;;;;;;29.05;7.03;;;;;;;7.30;100.00;99275.25;10459135;28;20041;-76
2023/12/10 00:42:10;;;;;;;26.48;5.97;;;;;;;7.33;100.00;99289.22;10441819;28;20048;-77
2023/12/10 00:47:11;;;;;;;36.28;8.95;;;;;;;7.37;100.00;99287.59;10459099;28;20071;-76
2023/12/10 00:52:11;;;;;;;31.65;9.18;;;;;;;7.40;100.00;99299.91;10440716;28;20045;-76
2023/12/10 00:57:12;;;;;;;20.88;7.22;;;;;;;7.39;100.00;99290.88;10439935;28;20037;-76
2023/12/10 01:02:14;;;;;;;26.60;7.30;;;;;;;7.41;100.00;99302.38;10424636;28;20040;-76
2023/12/10 01:07:16;;;;;;;34.53;9.57;;;;;;;7.41;100.00;99302.38;10458214;28;20404;-76
2023/12/10 01:12:17;;;;;;;18.13;5.47;;;;;;;7.38;100.00;99294.72;10457339;28;20041;-75
2023/12/10 01:17:18;;;;;;;22.77;4.82;;;;;;;7.46;100.00;99312.50;10439653;28;20037;-74
2023/12/10 01:22:18;;;;;;;21.15;6.13;;;;;;;7.57;100.00;99319.66;10453811;28;20787;-75
2023/12/10 01:27:19;;;;;;;16.65;5.18;;;;;;;7.59;100.00;99322.94;10447069;28;20389;-75
2023/12/10 01:32:20;;;;;;;17.50;4.88;;;;;;;7.59;100.00;99327.59;10437721;28;20053;-75
2023/12/10 01:37:21;;;;;;;19.15;5.60;;;;;;;7.56;100.00;99344.56;10458318;28;20079;-75
2023/12/10 01:42:21;;;;;;;19.45;5.20;;;;;;;7.43;100.00;99338.53;10454595;28;20595;-76
2023/12/10 01:47:22;;;;;;;30.45;8.50;;;;;;;7.34;100.00;99337.44;10450511;28;20045;-73
2023/12/10 01:52:22;;;;;;;21.13;7.70;;;;;;;7.22;100.00;99345.06;10421421;28;20041;-76
2023/12/10 01:57:22;;;;;;;17.58;7.03;;;;;;;7.13;100.00;99335.72;10438302;28;20041;-75
2023/12/10 02:02:23;;;;;;;21.48;7.65;;;;;;;7.08;100.00;99331.88;10419563;28;20127;-77
2023/12/10 02:07:23;;;;;;;23.20;9.20;;;;;;;7.02;100.00;99330.19;10448752;28;20067;-77
2023/12/10 02:12:24;;;;;;;20.88;8.75;;;;;;;6.58;100.00;99269.63;10437174;28;20044;-76
2023/12/10 02:17:24;;;;;;;30.00;8.75;;;;;;;6.94;100.00;99332.66;10420804;28;20067;-77
2023/12/10 02:22:25;;;;;;;29.63;10.70;;;;;;;6.92;100.00;99340.28;10455111;28;20044;-77
2023/12/10 02:27:25;;;;;;;27.98;10.07;;;;;;;6.90;100.00;99337.81;10399704;28;20091;-76
2023/12/10 02:32:26;;;;;;;21.95;10.68;;;;;;;6.90;100.00;99326.06;10422175;28;20040;-77
2023/12/10 02:37:26;;;;;;;27.90;10.82;;;;;;;6.92;100.00;99316.50;10456521;28;20039;-78
2023/12/10 02:42:27;;;;;;;25.15;10.30;;;;;;;6.86;100.00;99309.34;10455492;28;20089;-77
2023/12/10 02:47:27;;;;;;;24.40;9.85;;;;;;;6.81;100.00;99307.44;10437195;28;20401;-78
2023/12/10 02:52:28;;;;;;;20.38;10.07;;;;;;;6.87;100.00;99321.97;10394706;28;20037;-78
2023/12/10 02:57:28;;;;;;;25.58;10.25;;;;;;;6.86;100.00;99332.09;10420439;28;20048;-77
2023/12/10 03:02:29;;;;;;;22.30;10.70;;;;;;;6.91;100.00;99317.59;10462339;28;20060;-77
2023/12/10 03:07:29;;;;;;;21.95;11.20;;;;;;;6.88;100.00;99318.13;10427349;28;20052;-78
2023/12/10 03:12:30;;;;;;;24.20;11.98;;;;;;;6.87;100.00;99322.78;10459179;28;20083;-77
2023/12/10 03:17:30;;;;;;;30.98;12.48;;;;;;;6.86;100.00;99331.25;10442935;28;20048;-76
2023/12/10 03:22:31;;;;;;;28.00;12.00;;;;;;;6.83;100.00;99312.63;10462067;28;20033;-77
2023/12/10 03:27:31;;;;;;;32.15;12.27;;;;;;;6.83;100.00;99309.91;10402863;28;20190;-77
2023/12/10 03:32:32;;;;;;;22.45;11.40;;;;;;;6.84;100.00;99306.06;10443782;28;20136;-77
2023/12/10 03:37:32;;;;;;;17.75;10.98;;;;;;;6.83;100.00;99290.75;10445076;28;20033;-78
2023/12/10 03:42:33;;;;;;;18.55;11.82;;;;;;;6.50;100.00;99246.34;10455279;28;20106;-77
2023/12/10 03:47:34;;;;;;;21.75;11.95;;;;;;;6.80;100.00;99299.47;10423652;28;20364;-78
2023/12/10 03:52:35;;;;;;;25.00;11.98;;;;;;;6.75;100.00;99291.28;10426695;28;20033;-78
2023/12/10 03:57:36;;;;;;;18.33;11.82;;;;;;;6.73;100.00;99282.50;10461451;28;20076;-78
2023/12/10 04:02:36;;;;;;;16.92;11.85;;;;;;;6.76;100.00;99279.22;10435784;28;20496;-79
2023/12/10 04:07:38;;;;;;;27.33;13.90;;;;;;;6.66;100.00;99261.72;10442105;28;20095;-75
2023/12/10 04:12:38;;;;;;;22.33;14.38;;;;;;;6.72;100.00;99270.75;10441981;28;20053;-76
2023/12/10 04:17:39;;;;;;;19.90;12.77;;;;;;;6.70;100.00;99274.81;10459947;28;20061;-80
2023/12/10 04:22:39;;;;;;;15.57;13.75;;;;;;;6.71;100.00;99262.81;10442146;28;20043;-81
2023/12/10 04:27:40;;;;;;;16.58;12.52;;;;;;;6.71;100.00;99257.34;10442237;28;20048;-79
2023/12/10 04:32:40;;;;;;;14.23;12.88;;;;;;;6.73;100.00;99260.63;10455990;28;20063;-80
2023/12/10 04:37:41;;;;;;;14.93;12.70;;;;;;;6.73;100.00;99260.63;10434470;28;20044;-81
2023/12/10 04:42:41;;;;;;;17.05;15.65;;;;;;;6.67;100.00;99246.94;10441872;28;20056;-79
2023/12/10 04:47:42;;;;;;;18.33;16.95;;;;;;;6.76;100.00;99251.88;10417759;28;20125;-81
2023/12/10 04:52:42;;;;;;;19.08;17.77;;;;;;;6.64;100.00;99233.00;10439199;28;20055;-78
2023/12/10 04:57:43;;;;;;;19.95;18.05;;;;;;;6.79;100.00;99237.69;10441673;28;20068;-77
2023/12/10 05:02:43;;;;;;;21.90;20.40;;;;;;;6.83;100.00;99223.19;10435165;28;20045;-79
2023/12/10 05:07:44;;;;;;;20.92;19.50;;;;;;;6.72;100.00;99205.13;10442567;28;20179;-80
2023/12/10 05:12:45;;;;;;;21.33;19.83;;;;;;;6.81;100.00;99217.16;10439991;28;20103;-82
2023/12/10 05:17:46;;;;;;;21.00;19.30;;;;;;;6.91;100.00;99232.78;10423858;28;20048;-81
2023/12/10 05:22:46;;;;;;;22.90;21.25;;;;;;;6.95;100.00;99231.16;10454420;28;20491;-81
2023/12/10 05:27:47;;;;;;;21.08;19.30;;;;;;;6.38;100.00;99147.34;10457604;28;20520;-79
2023/12/10 05:32:47;;;;;;;21.17;19.30;;;;;;;7.00;100.00;99222.13;10458254;28;20040;-82
2023/12/10 05:37:48;;;;;;;22.15;20.30;;;;;;;6.99;100.00;99232.25;10423122;28;20043;-78
2023/12/10 05:42:48;;;;;;;20.13;18.77;;;;;;;7.03;100.00;99230.63;10432936;28;20037;-83
2023/12/10 05:47:49;;;;;;;19.67;18.60;;;;;;;7.06;100.00;99243.75;10457028;28;20466;-83
2023/12/10 05:52:49;;;;;;;20.10;18.85;;;;;;;7.13;100.00;99256.34;10439567;28;20567;-80
2023/12/10 05:57:50;;;;;;;20.45;19.35;;;;;;;7.07;100.00;99247.31;10457200;28;20037;-80
2023/12/10 06:02:50;;;;;;;21.05;19.80;;;;;;;7.22;100.00;99279.38;10457311;28;20052;-82
2023/12/10 06:07:51;;;;;;;20.50;19.42;;;;;;;7.30;100.00;99276.09;10429746;28;20032;-82
2023/12/10 06:12:51;;;;;;;20.50;19.30;;;;;;;7.28;100.00;99267.34;10437824;28;20036;-82
2023/12/10 06:17:52;;;;;;;21.20;19.92;;;;;;;7.28;100.00;99294.72;10411651;28;20044;-80
2023/12/10 06:22:52;;;;;;;19.48;17.50;;;;;;;7.28;100.00;99311.13;10438140;28;20072;-86
2023/12/10 06:27:54;;;;;;;20.27;19.00;;;;;;;7.27;100.00;99315.75;10420709;28;20386;-76
2023/12/10 06:32:54;;;;;;;20.65;19.10;;;;;;;7.30;100.00;99340.94;10438058;28;20040;-79
2023/12/10 06:37:55;;;;;;;20.77;19.35;;;;;;;7.30;100.00;99363.69;10437955;28;20057;-85
2023/12/10 06:42:55;;;;;;;21.58;19.67;;;;;;;7.30;100.00;99368.31;10434511;28;20037;-80
2023/12/10 06:47:56;;;;;;;20.85;19.38;;;;;;;7.32;100.00;99396.25;10436198;28;20041;-79
2023/12/10 06:52:56;;;;;;;25.17;23.13;;;;;;;7.30;100.00;99407.50;10446293;28;20037;-79
2023/12/10 06:57:57;;;;;;;26.58;24.33;;;;;;;7.33;100.00;99412.41;10421348;28;20037;-79
2023/12/10 07:02:57;;;;;;;26.40;24.15;;;;;;;7.33;100.00;99438.97;10420487;28;20048;-78
2023/12/10 07:07:58;;;;;;;26.42;23.48;;;;;;;7.34;100.00;99457.88;10453466;28;20504;-78
2023/12/10 07:12:58;;;;;;;23.40;21.42;;;;;;;7.40;100.00;99483.34;10437328;28;20497;-79
2023/12/10 07:17:59;;;;;;;24.38;22.75;;;;;;;7.39;100.00;99504.44;10420856;28;20471;-76
2023/12/10 07:22:59;;;;;;;25.63;23.38;;;;;;;7.40;100.00;99514.31;10399262;28;20060;-78
2023/12/10 07:28:00;;;;;;;23.70;21.60;;;;;;;7.45;100.00;99533.50;10432652;28;20029;-77
2023/12/10 07:33:01;;;;;;;25.38;22.92;;;;;;;7.38;100.00;99546.63;10453559;28;20048;-77
2023/12/10 07:38:01;;;;;;;22.98;21.10;;;;;;;7.37;100.00;99550.44;10440366;28;20071;-78
2023/12/10 07:43:02;;;;;;;24.20;22.02;;;;;;;7.43;100.00;99579.47;10453658;28;20060;-76
2023/12/10 07:48:03;;;;;;;22.55;20.42;;;;;;;7.45;100.00;99591.00;10439652;28;20049;-78
2023/12/10 07:53:03;;;;;;;21.45;19.95;;;;;;;7.51;100.00;99599.25;10442562;28;20048;-77
2023/12/10 07:58:04;;;;;;;22.00;20.05;;;;;;;7.51;100.00;99621.16;10446534;28;20064;-77
2023/12/10 08:03:05;;;;;;;20.85;19.67;;;;;;;7.45;100.00;99618.38;10458365;28;20041;-78
2023/12/10 08:08:06;;;;;;;21.23;19.70;;;;;;;7.55;100.00;99649.69;10425775;28;20041;-77
2023/12/10 08:13:06;;;;;;;23.00;21.38;;;;;;;7.57;100.00;99663.94;10439786;28;20120;-78
2023/12/10 08:18:07;;;;;;;23.50;21.60;;;;;;;7.46;100.00;99663.84;10458946;28;20040;-73
2023/12/10 08:23:07;;;;;;;22.73;20.98;;;;;;;7.51;100.00;99703.31;10425422;28;20049;-77
2023/12/10 08:28:08;;;;;;;27.20;25.50;;;;;;;7.44;100.00;99698.06;10433346;28;20448;-78
2023/12/10 08:33:08;;;;;;;26.10;24.25;;;;;;;7.45;100.00;99703.28;10440623;28;20045;-77
2023/12/10 08:38:09;;;;;;;25.48;23.55;;;;;;;7.45;100.00;99716.16;10458717;28;20054;-77
2023/12/10 08:43:09;;;;;;;25.38;23.75;;;;;;;7.45;100.00;99718.88;10458817;28;20052;-76
2023/12/10 08:48:10;;;;;;;27.15;24.75;;;;;;;7.46;100.00;99726.84;10421241;28;20071;-75
2023/12/10 08:53:10;;;;;;;27.38;25.65;;;;;;;7.55;100.00;99748.28;10432899;28;20033;-78
2023/12/10 08:58:11;;;;;;;27.40;25.30;;;;;;;7.57;100.00;99757.06;10438486;28;20083;-77
2023/12/10 09:03:11;;;;;;;24.48;23.15;;;;;;;7.52;100.00;99760.56;10426158;28;20037;-77
2023/12/10 09:08:12;;;;;;;29.48;26.98;;;;;;;7.53;100.00;99786.06;10458550;28;20049;-80
2023/12/10 09:13:12;;;;;;;26.92;24.65;;;;;;;7.54;100.00;99802.19;10456749;28;20045;-78
2023/12/10 09:18:12;;;;;;;25.33;23.42;;;;;;;7.34;100.00;99797.38;10430606;28;20037;-77
2023/12/10 09:23:13;;;;;;;26.60;24.52;;;;;;;7.45;100.00;99820.22;10421526;28;20256;-77
2023/12/10 09:28:13;;;;;;;27.17;24.92;;;;;;;7.42;100.00;99827.03;10431110;28;20041;-77
2023/12/10 09:33:14;;;;;;;25.90;23.67;;;;;;;7.42;100.00;99827.03;10456514;28;20053;-78
2023/12/10 09:38:14;;;;;;;28.40;25.40;;;;;;;7.37;100.00;99845.31;10456356;28;20068;-77
2023/12/10 09:43:15;;;;;;;29.08;25.38;;;;;;;7.38;100.00;99858.75;10451267;28;20060;-78
2023/12/10 09:48:15;;;;;;;29.83;26.85;;;;;;;7.23;100.00;99853.09;10455339;28;20060;-79
2023/12/10 09:53:17;;;;;;;27.95;25.42;;;;;;;7.30;100.00;99861.97;10432099;28;20056;-73
2023/12/10 09:58:18;;;;;;;28.08;25.33;;;;;;;7.34;100.00;99871.31;10472037;28;20040;-74
2023/12/10 10:03:20;;;;;;;27.17;24.67;;;;;;;7.24;100.00;99876.69;10435705;28;20049;-77
2023/12/10 10:08:20;;;;;;;24.35;22.13;;;;;;;7.29;100.00;99887.66;10448856;28;20044;-77
2023/12/10 10:13:21;;;;;;;31.77;23.25;;;;;;;7.05;100.00;99857.84;10455175;28;20048;-77
2023/12/10 10:18:22;;;;;;;26.30;23.77;;;;;;;7.44;100.00;99931.66;10459471;28;20100;-78
2023/12/10 10:23:23;;;;;;;26.30;23.55;;;;;;;7.43;100.00;99942.88;10436283;28;20070;-74
2023/12/10 10:28:24;;;;;;;26.70;24.25;;;;;;;7.42;100.00;99966.69;10436413;28;20071;-76
2023/12/10 10:33:25;;;;;;;31.48;24.38;;;;;;;7.44;100.00;99956.31;10456964;28;20037;-74
2023/12/10 10:38:27;;;;;;;27.52;24.90;;;;;;;7.37;100.00;99943.91;10428379;28;20048;-73
2023/12/10 10:43:28;;;;;;;29.77;26.55;;;;;;;7.36;100.00;99967.72;10448830;28;20125;-76
2023/12/10 10:48:28;;;;;;;30.02;26.90;;;;;;;7.36;100.00;99959.50;10427126;28;20493;-76
2023/12/10 10:53:29;;;;;;;32.33;29.33;;;;;;;7.35;100.00;99965.22;10458609;28;20439;-75
2023/12/10 10:58:30;;;;;;;32.15;28.88;;;;;;;7.37;100.00;99982.22;10430106;28;20083;-76
2023/12/10 11:03:31;;;;;;;35.42;28.73;;;;;;;7.38;100.00;99995.69;10448936;28;20467;-72
2023/12/10 11:08:31;;;;;;;32.03;26.92;;;;;;;7.38;100.00;99984.72;10467490;28;20052;-76
2023/12/10 11:13:45;;;;;;;31.70;25.70;;;;;;;7.42;100.00;99980.38;10461488;28;20045;-76
2023/12/10 11:18:58;;;;;;;42.20;25.02;;;;;;;7.35;100.00;99971.53;10466060;28;20049;-76
2023/12/10 11:23:58;;;;;;;31.75;25.95;;;;;;;7.43;100.00;99992.97;10441015;28;20104;-76
2023/12/10 11:29:01;;;;;;;39.55;25.85;;;;;;;7.43;100.00;100003.94;10460142;28;20052;-74
2023/12/10 11:34:01;;;;;;;41.65;24.00;;;;;;;7.45;100.00;100011.91;10413626;28;20065;-74
2023/12/10 11:39:02;;;;;;;39.65;23.67;;;;;;;7.44;100.00;100016.56;10455908;28;21212;-78
2023/12/10 11:44:03;;;;;;;38.63;25.77;;;;;;;7.45;100.00;100034.63;10459926;28;20051;-77
2023/12/10 11:49:06;;;;;;;44.88;25.95;;;;;;;7.46;100.00;100049.16;10445315;28;20490;-75
2023/12/10 11:54:07;;;;;;;40.00;24.77;;;;;;;7.40;100.00;100045.53;10440401;28;20033;-78
2023/12/10 11:59:08;;;;;;;36.35;25.85;;;;;;;7.38;100.00;100034.00;10458287;28;20041;-76
2023/12/10 12:04:08;;;;;;;38.60;23.70;;;;;;;7.51;100.00;100051.97;10439846;28;20072;-77
2023/12/10 12:09:20;;;;;;;34.58;24.02;;;;;;;7.61;100.00;100049.38;10458829;28;20049;-77
2023/12/10 12:14:20;;;;;;;45.95;23.83;;;;;;;7.60;100.00;100057.84;10452701;28;20112;-75
2023/12/10 12:19:25;;;;;;;43.05;23.30;;;;;;;7.57;100.00;100061.09;10476590;28;20502;-75
2023/12/10 12:24:25;;;;;;;40.13;22.20;;;;;;;7.72;100.00;100074.97;10422002;28;20116;-77
2023/12/10 12:29:26;;;;;;;40.63;24.70;;;;;;;7.77;100.00;100077.78;10463707;28;20441;-77
2023/12/10 12:34:26;;;;;;;31.27;19.00;;;;;;;7.71;100.00;100084.28;10447073;28;20037;-77
2023/12/10 12:39:27;;;;;;;39.15;23.48;;;;;;;7.69;100.00;100102.91;10456126;28;20041;-77
2023/12/10 12:44:27;;;;;;;37.05;20.58;;;;;;;7.70;100.00;100103.72;10471454;28;20511;-77
2023/12/10 12:49:28;;;;;;;44.78;21.45;;;;;;;7.59;100.00;100103.56;10463333;28;20036;-76
2023/12/10 12:54:29;;;;;;;32.53;20.58;;;;;;;7.57;100.00;100121.34;10462394;28;20048;-76
2023/12/10 12:59:29;;;;;;;32.40;19.50;;;;;;;7.55;100.00;100118.03;10477019;28;20048;-78
2023/12/10 13:04:30;;;;;;;31.70;21.77;;;;;;;7.32;100.00;100094.41;10481186;28;20060;-75
2023/12/10 13:09:30;;;;;;;33.08;18.63;;;;;;;7.50;100.00;100146.16;10471006;28;20103;-79
2023/12/10 13:14:31;;;;;;;26.00;17.00;;;;;;;7.53;100.00;100147.59;10452765;28;20445;-76
2023/12/10 13:19:31;;;;;;;29.70;15.38;;;;;;;7.58;100.00;100142.16;10464795;28;20079;-76
2023/12/10 13:24:32;;;;;;;41.10;17.25;;;;;;;7.52;100.00;100143.19;10458198;28;20040;-77
2023/12/10 13:29:32;;;;;;;28.75;16.60;;;;;;;7.43;100.00;100129.91;10451621;28;20476;-75
2023/12/10 13:34:33;;;;;;;29.95;16.33;;;;;;;7.31;100.00;100133.84;10424900;28;20048;-75
2023/12/10 13:39:33;;;;;;;30.48;17.13;;;;;;;7.31;100.00;100134.66;10428232;28;20037;-76
2023/12/10 13:44:34;;;;;;;25.65;15.77;;;;;;;7.39;100.00;100123.28;10457630;28;20067;-78
2023/12/10 13:49:34;;;;;;;23.30;14.20;;;;;;;7.46;100.00;100126.69;10450701;28;20041;-75
2023/12/10 13:54:35;;;;;;;20.67;12.30;;;;;;;7.45;100.00;100143.38;10460428;28;20044;-76
2023/12/10 13:59:36;;;;;;;20.55;14.45;;;;;;;7.41;100.00;100137.56;10479987;28;20036;-76
2023/12/10 14:04:37;;;;;;;22.00;12.23;;;;;;;7.32;100.00;100121.78;10468235;28;20033;-76
2023/12/10 14:09:37;;;;;;;14.75;13.23;;;;;;;7.43;100.00;100145.53;10399218;28;20040;-76
2023/12/10 14:14:39;;;;;;;16.92;12.32;;;;;;;7.30;100.00;100124.81;10444724;28;20052;-76
2023/12/10 14:19:39;;;;;;;20.23;11.40;;;;;;;7.40;100.00;100141.38;10448881;28;20116;-76
2023/12/10 14:24:40;;;;;;;22.60;13.23;;;;;;;7.35;100.00;100143.22;10454668;28;20047;-76
2023/12/10 14:29:40;;;;;;;26.88;13.15;;;;;;;7.29;100.00;100134.09;10475564;28;20047;-77
2023/12/10 14:34:41;;;;;;;30.83;15.77;;;;;;;7.25;100.00;100121.97;10450788;28;20483;-76
2023/12/10 14:39:41;;;;;;;22.92;16.63;;;;;;;7.20;100.00;100113.69;10449400;28;20033;-76
2023/12/10 14:44:42;;;;;;;27.17;18.10;;;;;;;7.16;100.00;100126.22;10454842;28;20045;-76
2023/12/10 14:49:43;;;;;;;23.52;12.85;;;;;;;7.17;100.00;100119.66;10427945;28;20045;-74
2023/12/10 14:54:43;;;;;;;16.67;11.43;;;;;;;7.19;100.00;100122.97;10471546;28;20158;-75
2023/12/10 14:59:44;;;;;;;22.33;10.32;;;;;;;7.22;100.00;100119.75;10456792;28;20035;-75
2023/12/10 15:04:45;;;;;;;19.00;11.77;;;;;;;7.26;100.00;100113.53;10464367;28;20043;-75
2023/12/10 15:09:45;;;;;;;29.50;10.45;;;;;;;7.21;100.00;100104.38;10457061;28;20037;-75
2023/12/10 15:14:46;;;;;;;25.27;10.00;;;;;;;7.21;100.00;100093.44;10454557;28;20037;-73
2023/12/10 15:19:46;;;;;;;22.38;11.10;;;;;;;7.10;100.00;100097.13;10475605;28;20059;-75
2023/12/10 15:24:47;;;;;;;20.70;10.75;;;;;;;7.02;100.00;100085.50;10473720;28;20452;-76
2023/12/10 15:29:48;;;;;;;15.82;11.05;;;;;;;6.85;100.00;100058.16;10454922;28;20439;-75
2023/12/10 15:34:49;;;;;;;20.95;12.32;;;;;;;6.90;100.00;100065.59;10459071;28;20049;-76
2023/12/10 15:39:50;;;;;;;25.42;13.05;;;;;;;6.81;100.00;100056.16;10458502;28;20056;-75
2023/12/10 15:44:51;;;;;;;22.08;15.50;;;;;;;6.77;100.00;100046.81;10470873;28;20052;-75
2023/12/10 15:49:51;;;;;;;23.58;13.27;;;;;;;6.71;100.00;100042.34;10469437;28;20039;-74
2023/12/10 15:54:52;;;;;;;20.75;14.70;;;;;;;6.62;100.00;100029.06;10446092;28;20060;-75
2023/12/10 15:59:52;;;;;;;19.25;15.45;;;;;;;6.56;100.00;99996.44;10456158;28;20045;-75
2023/12/10 16:04:53;;;;;;;30.48;20.45;;;;;;;6.49;100.00;100003.94;10441698;28;20041;-75
2023/12/10 16:09:56;;;;;;;24.95;14.35;;;;;;;6.44;100.00;99999.25;10456580;28;20555;-72
2023/12/10 16:14:57;;;;;;;26.67;15.85;;;;;;;6.47;100.00;99987.81;10464421;28;20052;-74
2023/12/10 16:19:57;;;;;;;19.52;15.00;;;;;;;6.48;100.00;99981.25;10478410;28;20082;-76
2023/12/10 16:24:58;;;;;;;33.33;14.60;;;;;;;6.51;100.00;99977.19;10474305;28;20117;-75
2023/12/10 16:29:58;;;;;;;22.88;14.95;;;;;;;6.54;100.00;99971.22;10474562;28;20033;-75
2023/12/10 16:34:59;;;;;;;29.98;15.63;;;;;;;6.54;100.00;99968.50;10434261;28;20044;-74
2023/12/10 16:40:00;;;;;;;19.77;12.63;;;;;;;6.49;100.00;99933.72;10470120;28;20067;-76
2023/12/10 16:45:01;;;;;;;28.08;13.80;;;;;;;6.68;100.00;99937.00;10473871;28;20092;-75
2023/12/10 16:50:02;;;;;;;22.33;12.52;;;;;;;6.69;100.00;99926.88;10473295;28;20039;-75
2023/12/10 16:55:03;;;;;;;26.92;14.35;;;;;;;6.68;100.00;99898.69;10457032;28;20098;-76
2023/12/10 17:00:05;;;;;;;32.33;18.60;;;;;;;6.73;100.00;99906.13;10438819;28;20059;-76
2023/12/10 17:05:06;;;;;;;29.08;18.63;;;;;;;6.62;100.00;99861.41;10464116;28;20170;-76
2023/12/10 17:10:07;;;;;;;40.67;23.40;;;;;;;6.66;100.00;99871.59;10468316;28;20094;-75
2023/12/10 17:15:08;;;;;;;31.48;23.65;;;;;;;6.63;100.00;99858.41;10456691;28;20638;-77
2023/12/10 17:20:09;;;;;;;25.52;23.05;;;;;;;6.60;100.00;99842.53;10437512;28;20052;-77
2023/12/10 17:25:09;;;;;;;29.08;23.25;;;;;;;6.54;100.00;99818.91;10422963;28;20450;-77
2023/12/10 17:30:10;;;;;;;28.40;23.27;;;;;;;6.50;100.00;99804.09;10456265;28;20037;-77
2023/12/10 17:35:11;;;;;;;34.75;26.35;;;;;;;6.50;100.00;99804.09;10461689;28;20051;-77
2023/12/10 17:40:12;;;;;;;33.80;25.58;;;;;;;6.54;100.00;99809.91;10450455;28;20044;-77
2023/12/10 17:45:12;;;;;;;39.63;26.27;;;;;;;6.57;100.00;99799.25;10423400;28;20037;-77
2023/12/10 17:50:15;;;;;;;34.47;28.08;;;;;;;6.63;100.00;99765.41;10474615;28;20041;-75
2023/12/10 17:55:16;;;;;;;41.70;27.27;;;;;;;6.70;100.00;99756.19;10443801;28;20725;-78
2023/12/10 18:00:17;;;;;;;49.17;30.15;;;;;;;6.74;100.00;99754.59;10475912;28;20062;-79
2023/12/10 18:05:17;;;;;;;59.65;28.60;;;;;;;6.76;100.00;99752.44;10446318;28;20052;-72
2023/12/10 18:10:18;;;;;;;40.67;28.02;;;;;;;6.73;100.00;99745.56;10435070;28;20052;-78
2023/12/10 18:15:18;;;;;;;37.60;28.92;;;;;;;6.76;100.00;99753.28;10422350;28;20040;-78
2023/12/10 18:20:19;;;;;;;45.70;28.15;;;;;;;6.79;100.00;99747.28;10455954;28;20041;-78
2023/12/10 18:25:19;;;;;;;55.03;31.15;;;;;;;6.89;100.00;99756.69;10436417;28;20114;-78
2023/12/10 18:30:20;;;;;;;51.47;27.58;;;;;;;6.96;100.00;99741.72;10454253;28;20036;-77
2023/12/10 18:35:22;;;;;;;45.42;30.27;;;;;;;6.98;100.00;99717.66;10421080;28;20041;-78
2023/12/10 18:40:27;;;;;;;42.42;28.80;;;;;;;7.00;100.00;99723.69;10454991;28;20033;-78
2023/12/10 18:45:27;;;;;;;46.05;29.17;;;;;;;6.97;100.00;99707.81;10438739;28;20033;-78
2023/12/10 18:50:28;;;;;;;46.88;26.85;;;;;;;6.95;100.00;99690.00;10454940;28;20041;-78
2023/12/10 18:55:28;;;;;;;41.97;29.15;;;;;;;6.95;100.00;99674.41;10416423;28;20498;-79
2023/12/10 19:00:31;;;;;;;35.35;28.02;;;;;;;6.91;100.00;99661.50;10427986;28;20037;-79
2023/12/10 19:05:32;;;;;;;29.95;26.77;;;;;;;6.84;100.00;99637.06;10452419;28;20115;-82
2023/12/10 19:10:32;;;;;;;30.85;26.42;;;;;;;6.76;100.00;99621.13;10454953;28;20036;-77
2023/12/10 19:15:33;;;;;;;36.63;26.55;;;;;;;6.66;100.00;99600.81;10437409;28;20053;-80
2023/12/10 19:20:33;;;;;;;31.63;27.00;;;;;;;6.49;100.00;99561.84;10436533;28;20052;-79
2023/12/10 19:25:34;;;;;;;38.85;28.50;;;;;;;6.55;100.00;99563.53;10436507;28;20053;-79
2023/12/10 19:30:34;;;;;;;26.67;23.95;;;;;;;6.43;100.00;99519.97;10453891;28;20412;-79
2023/12/10 19:35:35;;;;;;;31.20;24.05;;;;;;;6.49;100.00;99531.78;10419522;28;20061;-79
2023/12/10 19:40:35;;;;;;;31.40;22.88;;;;;;;6.44;100.00;99507.94;10428010;28;20033;-79
2023/12/10 19:45:36;;;;;;;28.45;22.42;;;;;;;6.45;100.00;99498.66;10427453;28;20073;-80
2023/12/10 19:50:36;;;;;;;26.48;24.35;;;;;;;6.41;100.00;99489.31;10426516;28;20033;-80
2023/12/10 19:55:37;;;;;;;35.38;24.50;;;;;;;6.42;100.00;99484.66;10442849;28;20052;-78
2023/12/10 20:00:37;;;;;;;31.35;22.60;;;;;;;6.41;100.00;99462.00;10459898;28;20040;-80
2023/12/10 20:05:38;;;;;;;38.05;25.05;;;;;;;6.40;100.00;99459.50;10424724;28;20044;-81
2023/12/10 20:10:38;;;;;;;35.40;23.50;;;;;;;6.38;100.00;99448.00;10461729;28;20041;-74
2023/12/10 20:15:39;;;;;;;36.83;24.42;;;;;;;6.38;100.00;99437.06;10433350;28;20068;-80
2023/12/10 20:20:42;;;;;;;33.00;24.23;;;;;;;6.38;100.00;99426.16;10459718;28;20063;-79
2023/12/10 20:25:44;;;;;;;34.22;23.17;;;;;;;6.38;100.00;99413.28;10454773;28;20055;-79
2023/12/10 20:30:46;;;;;;;35.03;24.33;;;;;;;6.40;100.00;99404.84;10425226;28;20102;-81
2023/12/10 20:35:48;;;;;;;35.25;24.17;;;;;;;6.40;100.00;99399.38;10459292;28;20048;-80
2023/12/10 20:40:48;;;;;;;36.20;24.75;;;;;;;6.43;100.00;99396.13;10441800;28;20098;-79
2023/12/10 20:45:49;;;;;;;30.90;24.65;;;;;;;6.43;100.00;99379.72;10459596;28;20052;-80
2023/12/10 20:50:49;;;;;;;41.75;23.30;;;;;;;6.44;100.00;99378.63;10441064;28;20447;-81
2023/12/10 20:55:50;;;;;;;25.67;23.05;;;;;;;6.46;100.00;99365.50;10440279;28;20041;-81
2023/12/10 21:00:50;;;;;;;39.90;24.75;;;;;;;6.37;100.00;99339.78;10465477;28;20041;-81
2023/12/10 21:05:51;;;;;;;30.67;23.00;;;;;;;6.43;100.00;99361.41;10424480;28;20067;-80
2023/12/10 21:10:52;;;;;;;35.08;23.92;;;;;;;6.50;100.00;99343.94;10424905;28;20045;-80
2023/12/10 21:15:52;;;;;;;35.42;21.45;;;;;;;6.52;100.00;99342.59;10458410;28;20048;-80
2023/12/10 21:20:53;;;;;;;26.95;21.08;;;;;;;6.56;100.00;99326.47;10457800;28;20087;-80
2023/12/10 21:25:53;;;;;;;27.38;21.40;;;;;;;6.57;100.00;99319.91;10457841;28;20036;-80
2023/12/10 21:30:54;;;;;;;31.02;20.45;;;;;;;6.59;100.00;99321.28;10456998;28;20096;-80
2023/12/10 21:35:54;;;;;;;25.63;20.38;;;;;;;6.63;100.00;99305.97;10439234;28;20033;-80
2023/12/10 21:40:55;;;;;;;28.25;21.42;;;;;;;6.65;100.00;99292.88;10440008;28;20055;-80
2023/12/10 21:45:55;;;;;;;22.27;20.08;;;;;;;6.67;100.00;99278.94;10439065;28;20041;-80
2023/12/10 21:50:56;;;;;;;33.30;22.83;;;;;;;6.70;100.00;99283.03;10438354;28;20083;-81
2023/12/10 21:55:56;;;;;;;25.42;21.30;;;;;;;6.71;100.00;99287.44;10456327;28;20052;-80
2023/12/10 22:00:57;;;;;;;23.77;21.58;;;;;;;6.71;100.00;99299.19;10455388;28;20303;-80
2023/12/10 22:05:57;;;;;;;34.53;23.95;;;;;;;6.81;100.00;99307.44;10437190;28;20523;-80
2023/12/10 22:11:00;;;;;;;26.33;22.75;;;;;;;6.87;100.00;99300.88;10421933;28;20075;-80
2023/12/10 22:16:00;;;;;;;25.27;22.75;;;;;;;6.98;100.00;99307.22;10455887;28;20032;-80
2023/12/10 22:21:01;;;;;;;26.90;24.15;;;;;;;7.23;100.00;99297.41;10458582;28;20429;-79
2023/12/10 22:26:01;;;;;;;33.30;29.58;;;;;;;7.37;100.00;99284.03;10458324;28;20044;-78
2023/12/10 22:31:02;;;;;;;31.23;28.10;;;;;;;7.63;100.00;99295.84;10436682;28;20044;-83
2023/12/10 22:36:03;;;;;;;43.03;33.05;;;;;;;7.85;100.00;99299.13;10455501;28;20029;-78
2023/12/10 22:41:04;;;;;;;46.13;36.00;;;;;;;7.99;100.00;99320.47;10438462;28;20033;-77
2023/12/10 22:46:04;;;;;;;44.38;39.60;;;;;;;8.04;100.00;99304.00;10437499;28;20048;-80